createdAt,value
2022-08-16T00:01:41.902Z,95.90
2022-08-16T00:04:09.676Z,95.80
2022-08-16T00:06:39.391Z,95.80
2022-08-16T00:09:07.590Z,96.10
2022-08-16T00:11:39.986Z,95.70
2022-08-16T00:14:11.086Z,95.70
2022-08-16T00:17:06.509Z,95.70
2022-08-16T00:19:41.868Z,95.70
2022-08-16T00:22:13.790Z,95.70
2022-08-16T00:24:44.805Z,95.80
2022-08-16T00:27:15.092Z,95.70
2022-08-16T00:29:42.778Z,95.80
2022-08-16T00:32:17.803Z,95.90
2022-08-16T00:34:53.131Z,96.00
2022-08-16T00:37:25.115Z,95.90
2022-08-16T00:40:15.261Z,96.10
2022-08-16T00:43:02.016Z,96.10
2022-08-16T00:46:00.306Z,96.20
2022-08-16T00:48:30.832Z,96.30
2022-08-16T00:51:00.370Z,96.40
2022-08-16T00:53:30.954Z,96.40
2022-08-16T00:56:05.095Z,96.40
2022-08-16T00:58:35.962Z,96.70
2022-08-16T01:01:08.131Z,96.50
2022-08-16T01:03:41.748Z,96.60
2022-08-16T01:06:39.859Z,96.70
2022-08-16T01:09:01.660Z,96.70
2022-08-16T01:11:31.520Z,96.80
2022-08-16T01:14:05.047Z,96.80
2022-08-16T01:16:33.167Z,97.00
2022-08-16T01:19:26.951Z,97.10
2022-08-16T01:22:49.406Z,97.20
2022-08-16T01:25:11.805Z,97.30
2022-08-16T01:27:46.092Z,97.50
2022-08-16T01:30:26.695Z,97.60
2022-08-16T01:33:01.233Z,97.60
2022-08-16T01:35:36.687Z,97.70
2022-08-16T01:38:25.762Z,97.60
2022-08-16T01:41:02.959Z,97.80
2022-08-16T01:43:32.153Z,97.90
2022-08-16T01:46:31.150Z,98.00
2022-08-16T01:48:55.918Z,98.10
2022-08-16T01:51:25.811Z,98.20
2022-08-16T01:53:55.407Z,98.30
2022-08-16T01:56:24.919Z,98.40
2022-08-16T01:58:55.149Z,98.60
2022-08-16T02:01:23.281Z,98.70
2022-08-16T02:03:54.018Z,98.70
2022-08-16T02:06:34.154Z,99.00
2022-08-16T02:09:11.703Z,99.20
2022-08-16T02:11:47.449Z,99.30
2022-08-16T02:14:18.108Z,99.40
2022-08-16T02:16:46.137Z,99.60
2022-08-16T02:19:15.845Z,99.70
2022-08-16T02:22:09.109Z,99.80
2022-08-16T02:24:42.264Z,99.90
2022-08-16T02:27:13.760Z,99.90
2022-08-16T02:29:43.189Z,99.90
2022-08-16T02:32:50.576Z,99.90
2022-08-16T02:35:00.870Z,99.90
2022-08-16T02:37:51.501Z,99.90
2022-08-16T02:40:17.626Z,99.90
2022-08-16T02:42:49.718Z,99.90
2022-08-16T02:45:20.486Z,99.90
2022-08-16T02:48:01.618Z,99.90
2022-08-16T02:50:53.830Z,99.90
2022-08-16T02:53:27.783Z,99.90
2022-08-16T02:55:57.330Z,99.90
2022-08-16T02:58:25.065Z,99.90
2022-08-16T03:00:55.996Z,99.90
2022-08-16T03:03:26.253Z,99.90
2022-08-16T03:05:53.976Z,99.90
2022-08-16T03:08:49.681Z,99.90
2022-08-16T03:11:16.849Z,99.90
2022-08-16T03:13:51.586Z,99.90
2022-08-16T03:16:36.589Z,99.90
2022-08-16T03:19:07.418Z,99.90
2022-08-16T03:21:38.112Z,99.90
2022-08-16T03:24:27.582Z,99.90
2022-08-16T03:27:02.946Z,99.90
2022-08-16T03:29:33.572Z,99.90
2022-08-16T03:32:01.903Z,99.90
2022-08-16T03:34:31.206Z,99.90
2022-08-16T03:36:58.598Z,99.90
2022-08-16T03:39:27.141Z,99.90
2022-08-16T03:41:59.981Z,99.90
2022-08-16T03:44:44.292Z,99.90
2022-08-16T03:47:19.143Z,99.90
2022-08-16T03:49:51.599Z,99.90
2022-08-16T03:52:23.515Z,99.90
2022-08-16T03:54:57.347Z,99.90
2022-08-16T03:57:31.912Z,99.90
2022-08-16T04:00:36.011Z,99.90
2022-08-16T04:03:08.729Z,99.90
2022-08-16T04:05:44.332Z,99.90
2022-08-16T04:08:23.381Z,99.90
2022-08-16T04:10:53.799Z,99.90
2022-08-16T04:14:00.709Z,99.90
2022-08-16T04:16:26.222Z,99.90
2022-08-16T04:19:02.511Z,99.90
2022-08-16T04:21:46.034Z,99.90
2022-08-16T04:24:15.283Z,99.90
2022-08-16T04:26:46.493Z,99.90
2022-08-16T04:29:23.273Z,99.90
2022-08-16T04:31:56.129Z,99.90
2022-08-16T04:34:29.909Z,99.90
2022-08-16T04:37:01.298Z,99.90
2022-08-16T04:39:36.964Z,99.90
2022-08-16T04:42:25.970Z,99.90
2022-08-16T04:44:56.234Z,99.90
2022-08-16T04:47:31.477Z,99.90
2022-08-16T04:50:01.694Z,99.80
2022-08-16T04:52:33.671Z,99.30
2022-08-16T04:55:06.375Z,99.20
2022-08-16T04:57:35.218Z,99.20
2022-08-16T05:00:31.078Z,98.70
2022-08-16T05:02:55.984Z,98.30
2022-08-16T05:05:24.355Z,98.50
2022-08-16T05:07:58.606Z,98.50
2022-08-16T05:10:29.836Z,98.70
2022-08-16T05:13:02.341Z,98.70
2022-08-16T05:15:30.546Z,98.40
2022-08-16T05:18:03.488Z,98.60
2022-08-16T05:20:39.189Z,98.50
2022-08-16T05:23:18.943Z,97.50
2022-08-16T05:25:49.013Z,97.60
2022-08-16T05:28:18.820Z,97.90
2022-08-16T05:30:50.387Z,97.90
2022-08-16T05:33:18.510Z,98.00
2022-08-16T05:35:55.392Z,97.90
2022-08-16T05:38:32.559Z,97.80
2022-08-16T05:41:07.230Z,97.10
2022-08-16T05:43:43.507Z,97.10
2022-08-16T05:46:28.599Z,97.20
2022-08-16T05:49:06.023Z,97.10
2022-08-16T05:51:38.497Z,97.00
2022-08-16T05:54:11.432Z,97.30
2022-08-16T05:56:40.518Z,96.60
2022-08-16T05:59:10.729Z,97.10
2022-08-16T06:01:39.170Z,97.20
2022-08-16T06:04:13.265Z,96.90
2022-08-16T06:06:57.379Z,96.40
2022-08-16T06:09:42.953Z,96.20
2022-08-16T06:12:26.743Z,96.40
2022-08-16T06:15:04.167Z,96.60
2022-08-16T06:17:41.770Z,96.70
2022-08-16T06:20:18.203Z,96.80
2022-08-16T06:23:02.987Z,97.10
2022-08-16T06:25:36.738Z,96.30
2022-08-16T06:28:09.468Z,95.70
2022-08-16T06:30:43.768Z,96.10
2022-08-16T06:33:22.084Z,95.40
2022-08-16T06:35:57.872Z,95.60
2022-08-16T06:38:34.026Z,95.10
2022-08-16T06:41:04.347Z,95.50
2022-08-16T06:43:32.451Z,95.90
2022-08-16T06:46:00.775Z,95.70
2022-08-16T06:48:33.682Z,95.80
2022-08-16T06:51:06.288Z,96.50
2022-08-16T06:53:36.415Z,96.10
2022-08-16T06:56:14.918Z,96.20
2022-08-16T06:58:52.776Z,95.60
2022-08-16T07:01:44.488Z,95.00
2022-08-16T07:04:10.428Z,95.40
2022-08-16T07:06:43.517Z,95.10
2022-08-16T07:09:13.954Z,95.60
2022-08-16T07:11:48.027Z,94.60
2022-08-16T07:14:26.334Z,94.80
2022-08-16T07:16:58.360Z,94.30
2022-08-16T07:20:02.547Z,93.60
2022-08-16T07:22:37.051Z,92.60
2022-08-16T07:25:06.401Z,92.10
2022-08-16T07:27:37.009Z,92.80
2022-08-16T07:30:39.372Z,92.20
2022-08-16T07:32:55.722Z,93.10
2022-08-16T07:35:23.479Z,93.50
2022-08-16T07:37:50.822Z,93.10
2022-08-16T07:40:18.693Z,91.40
2022-08-16T07:42:52.882Z,91.50
2022-08-16T07:45:20.349Z,91.30
2022-08-16T07:47:47.749Z,92.00
2022-08-16T07:50:57.219Z,91.40
2022-08-16T07:53:06.249Z,91.50
2022-08-16T07:55:46.030Z,91.80
2022-08-16T07:58:18.052Z,92.30
2022-08-16T08:00:46.118Z,92.10
2022-08-16T08:03:13.390Z,90.40
2022-08-16T08:05:42.289Z,91.20
2022-08-16T08:08:49.802Z,91.30
2022-08-16T08:11:02.039Z,90.10
2022-08-16T08:13:42.167Z,90.50
2022-08-16T08:16:18.943Z,90.20
2022-08-16T08:18:50.549Z,89.80
2022-08-16T08:21:27.777Z,89.10
2022-08-16T08:24:15.474Z,90.40
2022-08-16T08:26:43.385Z,89.10
2022-08-16T08:29:12.198Z,90.30
2022-08-16T08:31:42.540Z,89.40
2022-08-16T08:34:12.747Z,89.40
2022-08-16T08:36:40.265Z,87.70
2022-08-16T08:39:13.075Z,87.10
2022-08-16T08:41:42.352Z,88.40
2022-08-16T08:44:28.748Z,86.90
2022-08-16T08:47:04.778Z,87.00
2022-08-16T08:49:50.624Z,87.70
2022-08-16T08:52:34.152Z,87.30
2022-08-16T08:55:10.605Z,88.20
2022-08-16T08:57:45.445Z,87.40
2022-08-16T09:00:15.496Z,87.20
2022-08-16T09:02:51.889Z,86.90
2022-08-16T09:05:22.207Z,87.10
2022-08-16T09:08:00.631Z,88.00
2022-08-16T09:10:30.565Z,87.60
2022-08-16T09:12:59.224Z,88.20
2022-08-16T09:15:32.836Z,87.00
2022-08-16T09:18:26.260Z,88.10
2022-08-16T09:20:59.582Z,86.90
2022-08-16T09:23:36.537Z,87.00
2022-08-16T09:26:18.103Z,83.10
2022-08-16T09:29:15.222Z,83.30
2022-08-16T09:31:44.920Z,82.70
2022-08-16T09:34:17.141Z,83.60
2022-08-16T09:36:46.366Z,83.20
2022-08-16T09:39:16.131Z,83.10
2022-08-16T09:41:53.672Z,84.00
2022-08-16T09:45:12.351Z,83.50
2022-08-16T09:47:11.787Z,82.80
2022-08-16T09:49:41.086Z,82.70
2022-08-16T09:52:10.001Z,82.40
2022-08-16T09:54:38.330Z,83.80
2022-08-16T09:57:05.912Z,82.90
2022-08-16T09:59:41.853Z,82.70
2022-08-16T10:02:26.155Z,81.30
2022-08-16T10:04:58.805Z,83.40
2022-08-16T10:07:38.286Z,81.50
2022-08-16T10:10:18.625Z,84.20
2022-08-16T10:13:07.103Z,81.10
2022-08-16T10:15:36.314Z,80.70
2022-08-16T10:19:00.269Z,80.80
2022-08-16T10:20:56.074Z,79.50
2022-08-16T10:23:25.247Z,77.60
2022-08-16T10:27:18.694Z,77.00
2022-08-16T10:28:43.407Z,75.90
2022-08-16T10:31:14.440Z,75.50
2022-08-16T10:33:44.384Z,76.30
2022-08-16T10:36:39.388Z,74.60
2022-08-16T10:39:01.997Z,75.70
2022-08-16T10:41:29.681Z,74.70
2022-08-16T10:43:57.184Z,74.40
2022-08-16T10:46:39.170Z,73.70
2022-08-16T10:49:12.114Z,73.80
2022-08-16T10:52:02.388Z,75.30
2022-08-16T10:54:29.598Z,72.20
2022-08-16T10:56:59.266Z,71.60
2022-08-16T10:59:38.368Z,71.70
2022-08-16T11:02:58.056Z,69.80
2022-08-16T11:05:07.078Z,70.50
2022-08-16T11:07:51.992Z,70.40
2022-08-16T11:19:12.594Z,69.00
2022-08-16T11:24:41.997Z,68.60
2022-08-16T11:27:24.103Z,70.20
2022-08-16T11:29:56.397Z,67.00
2022-08-16T11:32:31.508Z,67.90
2022-08-16T11:35:14.645Z,68.20
2022-08-16T11:38:47.858Z,67.90
2022-08-16T11:40:52.770Z,66.00
2022-08-16T11:43:23.755Z,67.20
2022-08-16T11:45:55.155Z,67.40
2022-08-16T11:48:28.534Z,65.80
2022-08-16T11:50:56.871Z,65.80
2022-08-16T11:53:24.832Z,66.50
2022-08-16T11:55:55.042Z,66.90
2022-08-16T11:58:25.618Z,67.20
2022-08-16T12:00:54.558Z,66.50
2022-08-16T12:03:34.187Z,68.60
2022-08-16T12:06:11.197Z,67.70
2022-08-16T12:08:53.454Z,64.90
2022-08-16T12:11:22.870Z,64.30
2022-08-16T12:13:54.408Z,63.30
2022-08-16T12:16:21.703Z,63.50
2022-08-16T12:18:50.252Z,62.60
2022-08-16T12:21:18.042Z,62.60
2022-08-16T12:23:46.945Z,63.80
2022-08-16T12:26:14.163Z,65.00
2022-08-16T12:28:56.234Z,65.40
2022-08-16T12:31:24.328Z,65.30
2022-08-16T12:33:54.413Z,65.10
2022-08-16T12:36:29.696Z,63.10
2022-08-16T12:38:57.797Z,63.10
2022-08-16T12:41:26.185Z,63.10
2022-08-16T12:43:57.052Z,61.50
2022-08-16T12:46:28.674Z,61.40
2022-08-16T12:48:58.384Z,61.50
2022-08-16T12:51:32.912Z,62.30
2022-08-16T12:54:15.595Z,61.30
2022-08-16T12:56:42.904Z,61.40
2022-08-16T12:59:14.750Z,60.50
2022-08-16T13:01:47.963Z,61.90
2022-08-16T13:04:21.023Z,62.70
2022-08-16T13:06:52.005Z,62.30
2022-08-16T13:09:26.593Z,62.20
2022-08-16T13:12:07.700Z,61.40
2022-08-16T13:14:39.812Z,62.20
2022-08-16T13:17:19.044Z,63.00
2022-08-16T13:22:42.075Z,64.10
2022-08-16T13:25:13.109Z,62.50
2022-08-16T13:28:02.308Z,61.10
2022-08-16T13:30:36.025Z,63.30
2022-08-16T13:33:10.734Z,63.90
2022-08-16T13:35:43.532Z,62.50
2022-08-16T13:38:21.633Z,62.20
2022-08-16T13:40:56.744Z,60.90
2022-08-16T13:43:26.573Z,60.90
2022-08-16T13:45:55.395Z,60.00
2022-08-16T13:48:25.025Z,60.70
2022-08-16T13:51:02.479Z,59.70
2022-08-16T13:53:31.104Z,59.10
2022-08-16T13:55:59.929Z,59.50
2022-08-16T13:58:37.755Z,58.10
2022-08-16T14:01:16.966Z,60.10
2022-08-16T14:03:45.298Z,57.70
2022-08-16T14:06:14.109Z,59.30
2022-08-16T14:08:43.258Z,58.00
2022-08-16T14:11:14.743Z,56.00
2022-08-16T14:13:44.291Z,55.50
2022-08-16T14:16:24.568Z,56.10
2022-08-16T14:18:59.673Z,55.50
2022-08-16T14:21:26.937Z,55.60
2022-08-16T14:24:02.988Z,56.20
2022-08-16T14:26:41.534Z,56.50
2022-08-16T14:29:11.392Z,57.20
2022-08-16T14:31:39.797Z,57.60
2022-08-16T14:34:11.324Z,58.10
2022-08-16T14:36:40.840Z,58.50
2022-08-16T14:39:09.477Z,57.80
2022-08-16T14:41:37.728Z,57.60
2022-08-16T14:44:08.084Z,56.70
2022-08-16T14:46:36.617Z,56.40
2022-08-16T14:49:04.710Z,54.60
2022-08-16T14:51:37.736Z,55.20
2022-08-16T14:54:05.866Z,56.20
2022-08-16T14:56:43.314Z,54.10
2022-08-16T14:59:22.237Z,52.60
2022-08-16T15:01:59.567Z,53.80
2022-08-16T15:04:40.409Z,54.10
2022-08-16T15:07:16.966Z,54.00
2022-08-16T15:10:01.044Z,53.40
2022-08-16T15:12:33.907Z,52.90
2022-08-16T15:15:12.103Z,54.10
2022-08-16T15:17:54.261Z,54.20
2022-08-16T15:20:29.225Z,54.50
2022-08-16T15:23:00.579Z,57.10
2022-08-16T15:25:34.565Z,59.20
2022-08-16T15:28:05.584Z,59.90
2022-08-16T15:30:58.015Z,60.50
2022-08-16T15:33:25.741Z,61.40
2022-08-16T15:35:55.439Z,61.00
2022-08-16T15:38:54.934Z,60.50
2022-08-16T15:41:42.559Z,58.40
2022-08-16T15:44:13.464Z,57.70
2022-08-16T15:46:58.453Z,56.60
2022-08-16T15:49:34.652Z,55.50
2022-08-16T15:52:15.112Z,55.30
2022-08-16T15:54:52.628Z,55.90
2022-08-16T15:57:22.993Z,55.10
2022-08-16T15:59:52.662Z,55.10
2022-08-16T16:02:29.264Z,54.80
2022-08-16T16:05:04.514Z,54.70
2022-08-16T16:07:33.670Z,55.20
2022-08-16T16:10:03.903Z,55.00
2022-08-16T16:12:50.892Z,55.70
2022-08-16T16:15:22.816Z,56.00
2022-08-16T16:17:52.158Z,57.10
2022-08-16T16:20:21.610Z,56.50
2022-08-16T16:22:50.052Z,56.40
2022-08-16T16:25:18.673Z,56.70
2022-08-16T16:27:46.846Z,56.80
2022-08-16T16:30:32.967Z,57.40
2022-08-16T16:33:05.997Z,56.00
2022-08-16T16:35:36.539Z,56.80
2022-08-16T16:38:08.065Z,57.00
2022-08-16T16:40:46.575Z,57.30
2022-08-16T16:43:25.367Z,58.60
2022-08-16T16:45:53.253Z,59.40
2022-08-16T16:48:21.941Z,58.70
2022-08-16T16:50:58.225Z,59.00
2022-08-16T16:53:31.845Z,60.00
2022-08-16T16:56:08.728Z,60.50
2022-08-16T16:58:54.926Z,61.70
2022-08-16T17:01:41.342Z,62.40
2022-08-16T17:04:27.472Z,63.40
2022-08-16T17:07:00.003Z,64.60
2022-08-16T17:09:27.329Z,65.90
2022-08-16T17:11:55.846Z,67.30
2022-08-16T17:14:33.538Z,68.60
2022-08-16T17:17:09.363Z,69.10
2022-08-16T17:19:41.210Z,70.10
2022-08-16T17:22:14.811Z,70.60
2022-08-16T17:24:45.329Z,71.90
2022-08-16T17:27:17.898Z,72.20
2022-08-16T17:29:51.490Z,73.20
2022-08-16T17:32:46.523Z,74.20
2022-08-16T17:35:18.523Z,75.00
2022-08-16T17:37:51.016Z,75.70
2022-08-16T17:40:47.552Z,75.80
2022-08-16T17:43:14.711Z,76.70
2022-08-16T17:45:43.008Z,77.30
2022-08-16T17:48:10.521Z,77.90
2022-08-16T17:50:38.451Z,78.10
2022-08-16T17:53:06.642Z,78.30
2022-08-16T17:55:37.008Z,78.90
2022-08-16T17:58:10.539Z,79.70
2022-08-16T18:00:54.898Z,80.20
2022-08-16T18:04:07.678Z,80.50
2022-08-16T18:06:18.779Z,80.70
2022-08-16T18:08:51.975Z,81.10
2022-08-16T18:11:25.961Z,81.60
2022-08-16T18:13:54.863Z,81.90
2022-08-16T18:16:23.334Z,82.20
2022-08-16T18:18:50.702Z,82.30
2022-08-16T18:21:36.457Z,82.50
2022-08-16T18:24:03.864Z,82.70
2022-08-16T18:26:31.097Z,83.00
2022-08-16T18:28:58.355Z,83.10
2022-08-16T18:31:25.734Z,83.40
2022-08-16T18:33:55.587Z,84.00
2022-08-16T18:36:24.180Z,84.30
2022-08-16T18:38:52.847Z,84.20
2022-08-16T18:41:22.328Z,84.70
2022-08-16T18:44:00.964Z,84.80
2022-08-16T18:46:38.704Z,85.30
2022-08-16T18:49:06.055Z,85.50
2022-08-16T18:51:34.137Z,85.80
2022-08-16T18:54:01.812Z,86.40
2022-08-16T18:56:54.298Z,86.50
2022-08-16T18:59:16.366Z,86.50
2022-08-16T19:01:43.892Z,86.60
2022-08-16T19:04:55.122Z,86.80
2022-08-16T19:06:58.416Z,86.60
2022-08-16T19:09:25.795Z,86.50
2022-08-16T19:11:53.116Z,86.60
2022-08-16T19:14:22.216Z,86.80
2022-08-16T19:16:49.426Z,87.00
2022-08-16T19:19:16.988Z,87.10
2022-08-16T19:21:44.327Z,87.20
2022-08-16T19:24:18.189Z,87.30
2022-08-16T19:26:45.767Z,87.60
2022-08-16T19:29:13.571Z,88.20
2022-08-16T19:31:41.047Z,87.90
2022-08-16T19:34:08.935Z,88.40
2022-08-16T19:36:39.766Z,88.30
2022-08-16T19:39:14.107Z,88.60
2022-08-16T19:41:53.315Z,88.50
2022-08-16T19:44:22.402Z,88.50
2022-08-16T19:46:49.988Z,88.40
2022-08-16T19:49:17.595Z,88.70
2022-08-16T19:51:48.198Z,88.90
2022-08-16T19:54:16.082Z,89.10
2022-08-16T19:56:43.296Z,89.20
2022-08-16T19:59:20.623Z,89.40
2022-08-16T20:01:52.061Z,89.60
2022-08-16T20:04:20.907Z,89.70
2022-08-16T20:06:48.382Z,89.70
2022-08-16T20:09:16.222Z,90.00
2022-08-16T20:11:47.239Z,90.00
2022-08-16T20:14:25.581Z,90.00
2022-08-16T20:16:58.350Z,89.90
2022-08-16T20:19:32.573Z,89.90
2022-08-16T20:22:42.131Z,90.10
2022-08-16T20:25:09.546Z,90.00
2022-08-16T20:27:37.146Z,90.00
2022-08-16T20:30:06.707Z,90.00
2022-08-16T20:32:35.975Z,90.10
2022-08-16T20:35:08.757Z,90.10
2022-08-16T20:37:37.532Z,90.10
2022-08-16T20:40:34.533Z,90.10
2022-08-16T20:43:22.159Z,90.20
2022-08-16T20:45:49.306Z,90.30
2022-08-16T20:48:16.552Z,90.40
2022-08-16T20:50:44.036Z,90.50
2022-08-16T20:53:11.798Z,90.60
2022-08-16T20:55:40.554Z,90.70
2022-08-16T20:58:07.929Z,90.70
2022-08-16T21:00:35.227Z,90.70
2022-08-16T21:03:11.357Z,90.90
2022-08-16T21:05:39.017Z,90.80
2022-08-16T21:08:52.787Z,90.80
2022-08-16T21:10:54.562Z,91.00
2022-08-16T21:13:21.816Z,91.00
2022-08-16T21:15:49.288Z,91.10
2022-08-16T21:18:16.460Z,91.10
2022-08-16T21:20:43.795Z,91.20
2022-08-16T21:23:11.409Z,91.40
2022-08-16T21:25:44.886Z,91.50
2022-08-16T21:28:39.458Z,91.60
2022-08-16T21:31:11.084Z,91.60
2022-08-16T21:33:38.392Z,91.80
2022-08-16T21:36:05.832Z,91.90
2022-08-16T21:38:33.139Z,92.00
2022-08-16T21:41:02.238Z,92.20
2022-08-16T21:43:32.886Z,92.30
2022-08-16T21:46:04.592Z,92.40
2022-08-16T21:48:34.565Z,92.60
2022-08-16T21:51:07.913Z,92.80
2022-08-16T21:53:36.147Z,92.90
2022-08-16T21:56:06.161Z,93.00
2022-08-16T21:58:33.792Z,93.10
2022-08-16T22:01:02.835Z,93.20
2022-08-16T22:03:33.232Z,93.40
2022-08-16T22:06:12.186Z,93.50
2022-08-16T22:08:49.138Z,93.50
2022-08-16T22:11:20.656Z,93.80
2022-08-16T22:13:57.328Z,93.80
2022-08-16T22:16:31.637Z,94.00
2022-08-16T22:18:59.861Z,94.20
2022-08-16T22:21:27.447Z,94.30
2022-08-16T22:23:57.670Z,94.50
2022-08-16T22:26:38.461Z,94.50
2022-08-16T22:29:10.452Z,94.60
2022-08-16T22:31:39.517Z,94.70
2022-08-16T22:34:07.962Z,94.90
2022-08-16T22:36:35.332Z,95.00
2022-08-16T22:39:04.823Z,95.10
2022-08-16T22:41:33.992Z,95.10
2022-08-16T22:44:02.415Z,95.20
2022-08-16T22:46:30.459Z,95.20
2022-08-16T22:48:58.130Z,95.40
2022-08-16T22:51:27.639Z,95.50
2022-08-16T22:53:56.056Z,95.60
2022-08-16T22:56:24.228Z,95.80
2022-08-16T22:58:52.002Z,95.90
2022-08-16T23:01:23.157Z,96.10
2022-08-16T23:03:51.433Z,96.20
2022-08-16T23:06:18.969Z,96.30
2022-08-16T23:08:46.226Z,96.50
2022-08-16T23:11:22.685Z,96.60
2022-08-16T23:13:56.039Z,96.70
2022-08-16T23:16:33.502Z,97.00
2022-08-16T23:19:07.352Z,97.00
2022-08-16T23:21:37.332Z,97.20
2022-08-16T23:24:05.953Z,97.30
2022-08-16T23:26:47.263Z,97.40
2022-08-16T23:29:24.750Z,97.50
2022-08-16T23:31:56.484Z,97.60
2022-08-16T23:34:24.720Z,97.60
2022-08-16T23:36:51.961Z,97.70
2022-08-16T23:39:19.214Z,97.90
2022-08-16T23:41:46.414Z,97.90
2022-08-16T23:44:56.859Z,98.00
2022-08-16T23:47:00.818Z,98.00
2022-08-16T23:50:00.356Z,98.10
2022-08-16T23:52:15.413Z,98.30
2022-08-16T23:54:42.612Z,98.40
2022-08-16T23:57:09.783Z,98.40
2022-08-16T23:59:48.539Z,98.50
